Time;durP1;ratioP1;P1;durP2;ratioP2;P2;SDS_P1;SDS_P2;PMS_P1;PMS_P2;Temp;Humidity;BMP_temperature;BMP_pressure;BME280_temperature;BME280_humidity;BME280_pressure;Samples;Min_cycle;Max_cycle;Signal;HPM_P1;HPM_P2
2020/12/08 00:00:36;;;;;;;14.03;12.13;;;;;;;0.90;100.00;96654.69;4965754;28;24760;-69
2020/12/08 00:03:03;;;;;;;13.90;12.60;;;;;;;1.15;100.00;96644.69;5015963;28;20201;-68
2020/12/08 00:05:31;;;;;;;14.40;10.67;;;;;;;1.03;100.00;96641.38;5006188;28;20898;-67
2020/12/08 00:07:58;;;;;;;12.57;11.20;;;;;;;1.06;100.00;96635.03;5018824;28;20234;-69
2020/12/08 00:10:26;;;;;;;12.90;11.70;;;;;;;1.03;100.00;96630.94;5015450;28;20290;-68
2020/12/08 00:12:53;;;;;;;12.80;11.50;;;;;;;1.00;100.00;96645.06;5003263;28;20212;-69
2020/12/08 00:15:20;;;;;;;12.77;11.60;;;;;;;1.03;100.00;96645.75;5007956;28;20230;-67
2020/12/08 00:17:48;;;;;;;14.10;12.63;;;;;;;1.07;100.00;96636.69;4977929;28;20207;-67
2020/12/08 00:20:16;;;;;;;13.20;11.80;;;;;;;1.08;100.00;96633.94;5012697;28;20207;-69
2020/12/08 00:22:44;;;;;;;12.90;11.57;;;;;;;1.00;100.00;96624.19;5006905;28;20212;-69
2020/12/08 00:25:11;;;;;;;13.10;11.80;;;;;;;0.96;100.00;96622.03;5011751;28;20212;-69
2020/12/08 00:27:38;;;;;;;13.40;12.13;;;;;;;0.89;100.00;96626.13;5003143;28;20252;-67
2020/12/08 00:30:07;;;;;;;14.07;11.50;;;;;;;0.81;100.00;96616.38;5005953;28;20200;-67
2020/12/08 00:32:37;;;;;;;13.50;12.10;;;;;;;0.81;100.00;96614.59;4976037;28;20212;-69
2020/12/08 00:35:04;;;;;;;13.33;11.93;;;;;;;0.70;100.00;96617.34;5012878;28;20228;-67
2020/12/08 00:37:31;;;;;;;12.40;11.27;;;;;;;0.66;100.00;96611.56;5010916;28;20200;-69
2020/12/08 00:39:59;;;;;;;13.40;12.07;;;;;;;0.56;100.00;96614.13;5015302;28;20210;-68
2020/12/08 00:42:27;;;;;;;13.33;11.50;;;;;;;0.46;100.00;96615.91;5019136;28;20199;-68
2020/12/08 00:44:54;;;;;;;12.67;11.37;;;;;;;0.37;100.00;96612.31;5003054;28;20224;-68
2020/12/08 00:47:21;;;;;;;13.73;12.33;;;;;;;0.35;100.00;96606.41;5006737;28;20224;-69
2020/12/08 00:49:48;;;;;;;13.40;11.97;;;;;;;0.33;100.00;96613.56;4973423;28;20450;-69
2020/12/08 00:52:15;;;;;;;12.57;11.30;;;;;;;0.32;100.00;96621.50;5028603;28;20218;-68
2020/12/08 00:54:42;;;;;;;13.77;12.30;;;;;;;0.32;100.00;96613.69;4999138;28;20235;-66
2020/12/08 00:57:09;;;;;;;15.97;12.17;;;;;;;0.30;100.00;96619.03;5024075;28;20215;-67
2020/12/08 00:59:36;;;;;;;13.93;11.63;;;;;;;0.19;100.00;96613.94;5011662;28;20219;-67
2020/12/08 01:02:05;;;;;;;13.93;11.80;;;;;;;0.17;100.00;96621.88;5010971;28;20212;-69
2020/12/08 01:04:32;;;;;;;12.73;11.47;;;;;;;0.10;100.00;96620.75;4975738;28;20230;-68
2020/12/08 01:06:59;;;;;;;12.13;11.03;;;;;;;0.07;100.00;96619.25;5026769;28;20233;-67
2020/12/08 01:09:27;;;;;;;12.63;11.33;;;;;;;-0.03;100.00;96616.59;5005536;28;20919;-67
2020/12/08 01:11:54;;;;;;;12.87;11.43;;;;;;;-0.10;100.00;96614.66;5019291;28;20204;-69
2020/12/08 01:14:22;;;;;;;14.40;11.87;;;;;;;-0.17;100.00;96625.59;5005524;28;20663;-67
2020/12/08 01:16:49;;;;;;;13.63;12.23;;;;;;;-0.24;100.00;96619.25;5014655;28;20203;-68
2020/12/08 01:19:16;;;;;;;12.53;11.23;;;;;;;-0.33;100.00;96615.66;4976825;28;20886;-68
2020/12/08 01:21:43;;;;;;;14.93;12.53;;;;;;;-0.38;100.00;96615.22;5020197;28;20864;-66
2020/12/08 01:24:10;;;;;;;12.47;11.30;;;;;;;-0.37;100.00;96611.66;5007651;28;20212;-67
2020/12/08 01:26:36;;;;;;;14.07;12.47;;;;;;;-0.36;100.00;96613.31;5021616;28;20939;-67
2020/12/08 01:29:04;;;;;;;14.17;12.67;;;;;;;-0.37;100.00;96614.25;5007308;28;20212;-68
2020/12/08 01:31:32;;;;;;;14.70;12.97;;;;;;;-0.40;100.00;96613.69;5018745;28;20204;-68
2020/12/08 01:34:00;;;;;;;13.47;12.07;;;;;;;-0.45;100.00;96619.28;5005891;28;20216;-69
2020/12/08 01:36:27;;;;;;;13.10;11.80;;;;;;;-0.17;100.00;96620.38;4984095;28;20603;-68
2020/12/08 01:38:54;;;;;;;13.37;12.00;;;;;;;-0.29;100.00;96616.22;5003677;28;20215;-66
2020/12/08 01:41:21;;;;;;;12.77;11.40;;;;;;;-0.46;100.00;96621.06;5019597;28;20287;-69
2020/12/08 01:43:48;;;;;;;13.70;11.87;;;;;;;-0.52;100.00;96625.97;5019238;28;20204;-67
2020/12/08 01:46:17;;;;;;;14.07;12.67;;;;;;;-0.54;100.00;96623.47;5003575;28;20231;-69
2020/12/08 01:48:45;;;;;;;13.13;11.40;;;;;;;-0.67;100.00;96625.47;5005360;28;20227;-67
2020/12/08 01:51:13;;;;;;;13.70;12.30;;;;;;;-0.78;100.00;96619.34;4982495;28;20212;-68
2020/12/08 01:53:40;;;;;;;14.43;12.83;;;;;;;-0.81;100.00;96619.59;5025123;28;20207;-66
2020/12/08 01:56:08;;;;;;;15.53;12.63;;;;;;;-0.83;100.00;96618.09;5006696;28;20788;-68
2020/12/08 01:58:35;;;;;;;14.30;12.80;;;;;;;-0.75;100.00;96616.53;5025730;28;20219;-67
2020/12/08 02:01:02;;;;;;;15.03;13.53;;;;;;;-0.76;100.00;96619.25;5005113;28;20975;-69
2020/12/08 02:03:30;;;;;;;14.23;12.67;;;;;;;-0.83;100.00;96616.31;5022326;28;20219;-68
2020/12/08 02:05:58;;;;;;;14.20;12.73;;;;;;;-0.75;100.00;96623.50;4968960;28;20394;-69
2020/12/08 02:08:32;;;;;;;17.07;13.90;;;;;;;-0.73;100.00;96614.63;5023101;28;20498;-68
2020/12/08 02:11:00;;;;;;;13.93;12.53;;;;;;;-0.70;100.00;96623.13;5005364;28;20208;-69
2020/12/08 02:13:27;;;;;;;13.87;12.07;;;;;;;-0.66;100.00;96625.31;5025740;28;20215;-68
2020/12/08 02:15:54;;;;;;;13.80;12.50;;;;;;;-0.51;100.00;96622.41;5006268;28;20223;-69
2020/12/08 02:18:22;;;;;;;14.70;13.00;;;;;;;-0.51;100.00;96628.44;5020478;28;20672;-70
2020/12/08 02:20:54;;;;;;;14.77;13.20;;;;;;;-0.50;100.00;96624.06;5009416;28;20736;-68
2020/12/08 02:23:21;;;;;;;14.83;13.33;;;;;;;-0.44;100.00;96626.97;4984171;28;20596;-66
2020/12/08 02:25:56;;;;;;;15.43;13.03;;;;;;;-0.42;100.00;96626.84;5022005;28;20236;-68
2020/12/08 02:28:23;;;;;;;14.57;12.73;;;;;;;-0.35;100.00;96633.19;5004987;28;20753;-67
2020/12/08 02:30:50;;;;;;;14.17;12.73;;;;;;;-0.30;100.00;96628.41;5023439;28;20211;-68
2020/12/08 02:33:17;;;;;;;15.20;13.10;;;;;;;-0.11;100.00;96632.06;5006510;28;20211;-67
2020/12/08 02:35:44;;;;;;;13.30;12.00;;;;;;;-0.07;100.00;96622.19;5006115;28;20838;-69
2020/12/08 02:38:12;;;;;;;14.10;12.73;;;;;;;-0.25;100.00;96629.78;4980761;28;20223;-67
2020/12/08 02:40:39;;;;;;;12.70;11.40;;;;;;;-0.28;100.00;96627.44;5022351;28;20200;-67
2020/12/08 02:43:06;;;;;;;13.60;12.30;;;;;;;-0.32;100.00;96629.50;5004622;28;20701;-67
2020/12/08 02:45:33;;;;;;;14.03;12.60;;;;;;;-0.33;100.00;96625.25;5017181;28;20588;-67
2020/12/08 02:48:00;;;;;;;15.23;13.63;;;;;;;-0.29;100.00;96624.03;5000194;28;20779;-69
2020/12/08 02:50:27;;;;;;;14.37;12.67;;;;;;;-0.30;100.00;96622.38;5008165;28;20676;-67
2020/12/08 02:52:54;;;;;;;13.47;12.00;;;;;;;-0.23;100.00;96620.06;4984242;28;25603;-68
2020/12/08 02:55:22;;;;;;;13.70;12.30;;;;;;;-0.20;100.00;96623.25;5020837;28;20604;-68
2020/12/08 02:57:49;;;;;;;15.37;13.87;;;;;;;-0.12;100.00;96617.41;5001986;28;20448;-69
2020/12/08 03:00:15;;;;;;;14.07;12.57;;;;;;;0.19;100.00;96616.53;5016793;28;20223;-69
2020/12/08 03:02:43;;;;;;;14.63;12.83;;;;;;;0.05;100.00;96610.75;5003009;28;20203;-66
2020/12/08 03:05:10;;;;;;;14.30;12.90;;;;;;;-0.01;100.00;96612.09;5016684;28;20255;-68
2020/12/08 03:07:38;;;;;;;13.40;12.10;;;;;;;0.01;100.00;96618.94;5004323;28;20806;-69
2020/12/08 03:10:05;;;;;;;14.57;13.03;;;;;;;0.03;100.00;96624.84;4981735;28;20228;-69
2020/12/08 03:12:34;;;;;;;14.17;12.77;;;;;;;0.06;100.00;96620.22;5012671;28;20224;-67
2020/12/08 03:15:05;;;;;;;14.30;12.80;;;;;;;0.06;100.00;96619.38;5004333;28;20225;-68
2020/12/08 03:17:32;;;;;;;13.90;12.40;;;;;;;0.16;100.00;96616.81;5015954;28;20231;-67
2020/12/08 03:20:00;;;;;;;14.37;12.87;;;;;;;0.03;100.00;96625.69;5000976;28;20212;-69
2020/12/08 03:22:27;;;;;;;14.53;13.13;;;;;;;0.25;100.00;96627.25;5006754;28;20207;-68
2020/12/08 03:24:54;;;;;;;15.20;13.67;;;;;;;0.21;100.00;96631.09;4965721;28;20231;-69
2020/12/08 03:27:21;;;;;;;14.87;13.30;;;;;;;0.10;100.00;96634.63;5018107;28;20708;-67
2020/12/08 03:29:49;;;;;;;15.10;13.50;;;;;;;0.13;100.00;96631.75;4994873;28;20208;-67
2020/12/08 03:32:16;;;;;;;15.60;13.17;;;;;;;0.34;100.00;96633.44;5006325;28;20213;-66
2020/12/08 03:34:42;;;;;;;13.80;12.33;;;;;;;0.37;100.00;96641.00;4995830;28;20228;-67
2020/12/08 03:37:10;;;;;;;15.93;13.43;;;;;;;0.52;100.00;96633.63;4990972;28;20799;-68
2020/12/08 03:39:37;;;;;;;14.00;12.50;;;;;;;0.25;100.00;96640.28;5000362;28;20720;-66
2020/12/08 03:42:05;;;;;;;15.83;13.57;;;;;;;0.22;100.00;96634.50;4967922;28;20212;-67
2020/12/08 03:44:32;;;;;;;15.37;13.60;;;;;;;0.07;100.00;96634.88;4990855;28;20232;-67
2020/12/08 03:47:00;;;;;;;16.13;13.73;;;;;;;0.14;100.00;96637.78;5014867;28;20235;-68
2020/12/08 03:49:27;;;;;;;16.03;14.40;;;;;;;0.19;100.00;96629.56;5010396;28;20211;-66
2020/12/08 03:51:54;;;;;;;15.83;14.10;;;;;;;0.24;100.00;96630.81;4996083;28;20595;-69
2020/12/08 03:54:21;;;;;;;15.00;13.40;;;;;;;0.34;100.00;96622.22;5011396;28;20207;-66
2020/12/08 03:56:49;;;;;;;14.90;13.27;;;;;;;0.40;100.00;96616.44;4979101;28;20691;-67
2020/12/08 03:59:17;;;;;;;15.97;14.23;;;;;;;0.43;100.00;96617.03;5016565;28;20208;-68
2020/12/08 04:01:45;;;;;;;20.13;16.23;;;;;;;0.28;100.00;96613.97;5020977;28;20197;-67
2020/12/08 04:04:14;;;;;;;21.20;16.67;;;;;;;0.23;100.00;96610.94;5016568;28;20409;-69
2020/12/08 04:06:41;;;;;;;20.97;16.37;;;;;;;0.25;100.00;96616.84;4988972;28;20220;-66
2020/12/08 04:09:08;;;;;;;19.90;16.17;;;;;;;0.23;100.00;96610.09;5013951;28;20573;-67
2020/12/08 04:11:35;;;;;;;20.40;16.57;;;;;;;0.23;100.00;96605.72;4987126;28;20704;-65
2020/12/08 04:14:03;;;;;;;24.07;16.70;;;;;;;0.34;100.00;96617.81;5012434;28;20210;-66
2020/12/08 04:16:30;;;;;;;24.77;18.10;;;;;;;0.49;100.00;96612.22;5024760;28;20215;-68
2020/12/08 04:18:59;;;;;;;19.60;16.40;;;;;;;0.54;100.00;96608.25;5013405;28;21008;-67
2020/12/08 04:21:28;;;;;;;19.30;17.00;;;;;;;0.50;100.00;96604.25;5005032;28;20680;-65
2020/12/08 04:23:59;;;;;;;19.10;16.43;;;;;;;0.55;100.00;96602.06;5008804;28;20361;-68
2020/12/08 04:26:27;;;;;;;21.10;17.23;;;;;;;0.67;100.00;96607.16;5019332;28;20312;-66
2020/12/08 04:28:54;;;;;;;20.73;18.17;;;;;;;0.61;100.00;96605.13;4977234;28;20666;-68
2020/12/08 04:31:22;;;;;;;20.67;17.57;;;;;;;0.68;100.00;96607.03;5017448;28;20766;-68
2020/12/08 04:33:49;;;;;;;19.33;16.70;;;;;;;0.63;100.00;96605.81;5002911;28;20217;-68
2020/12/08 04:36:18;;;;;;;18.10;15.10;;;;;;;0.55;100.00;96606.47;4998904;28;20746;-66
2020/12/08 04:38:46;;;;;;;15.70;13.90;;;;;;;0.50;100.00;96612.06;5001833;28;20235;-69
2020/12/08 04:41:19;;;;;;;14.97;13.13;;;;;;;0.52;100.00;96615.38;5009993;28;20700;-65
2020/12/08 04:43:47;;;;;;;17.37;15.33;;;;;;;0.56;100.00;96618.53;4971287;28;20216;-66
2020/12/08 04:46:14;;;;;;;16.00;14.27;;;;;;;0.52;100.00;96609.34;5015164;28;20588;-65
2020/12/08 04:48:41;;;;;;;17.10;14.40;;;;;;;0.48;100.00;96611.38;5016216;28;21112;-66
2020/12/08 04:51:08;;;;;;;18.07;15.13;;;;;;;0.60;100.00;96611.28;5020624;28;20205;-65
2020/12/08 04:53:35;;;;;;;17.37;14.90;;;;;;;0.49;100.00;96605.22;4992015;28;20204;-67
2020/12/08 04:56:03;;;;;;;17.77;15.87;;;;;;;0.51;100.00;96597.28;5013469;28;20220;-65
2020/12/08 04:58:31;;;;;;;15.87;14.17;;;;;;;0.49;100.00;96599.19;4974755;28;21363;-66
2020/12/08 05:00:59;;;;;;;21.10;14.50;;;;;;;0.52;100.00;96597.13;5014468;28;20525;-66
2020/12/08 05:03:27;;;;;;;17.43;15.10;;;;;;;0.52;100.00;96597.13;5014463;28;20211;-66
2020/12/08 05:05:54;;;;;;;19.37;15.10;;;;;;;0.50;100.00;96604.25;5018870;28;20255;-66
2020/12/08 05:08:22;;;;;;;17.87;15.07;;;;;;;0.48;100.00;96607.97;5007175;28;20231;-66
2020/12/08 05:10:49;;;;;;;16.97;15.13;;;;;;;0.55;100.00;96616.91;5001495;28;20615;-65
2020/12/08 05:13:20;;;;;;;16.20;14.40;;;;;;;0.47;100.00;96614.16;5016325;28;20580;-66
2020/12/08 05:16:00;;;;;;;18.70;15.67;;;;;;;0.49;100.00;96614.84;4979553;28;20232;-64
2020/12/08 05:18:27;;;;;;;17.53;15.17;;;;;;;0.45;100.00;96616.88;5016776;28;20603;-66
2020/12/08 05:20:54;;;;;;;16.97;13.70;;;;;;;0.54;100.00;96617.84;5013808;28;20237;-65
2020/12/08 05:23:22;;;;;;;17.67;15.07;;;;;;;0.78;100.00;96606.22;4986366;28;20208;-66
2020/12/08 05:25:49;;;;;;;17.80;15.13;;;;;;;0.65;100.00;96607.28;5003068;28;20342;-65
2020/12/08 05:28:20;;;;;;;17.60;15.77;;;;;;;0.74;100.00;96607.44;5014618;28;20235;-65
2020/12/08 05:30:47;;;;;;;17.33;15.53;;;;;;;0.59;100.00;96610.44;4977733;28;20247;-65
2020/12/08 05:33:17;;;;;;;17.63;15.43;;;;;;;0.52;100.00;96610.16;5012079;28;20201;-65
2020/12/08 05:35:46;;;;;;;20.33;14.47;;;;;;;0.54;100.00;96616.06;5018532;28;20246;-66
2020/12/08 05:38:15;;;;;;;17.33;15.53;;;;;;;0.61;100.00;96618.16;5007328;28;20209;-65
2020/12/08 05:40:45;;;;;;;18.47;15.63;;;;;;;0.57;100.00;96617.59;5004938;28;20231;-66
2020/12/08 05:43:13;;;;;;;17.07;15.07;;;;;;;0.50;100.00;96619.09;5014141;28;20705;-64
2020/12/08 05:45:40;;;;;;;19.23;15.30;;;;;;;0.46;100.00;96620.31;4984123;28;20227;-65
2020/12/08 05:48:07;;;;;;;18.07;15.77;;;;;;;0.44;100.00;96623.03;5019062;28;20432;-66
2020/12/08 05:50:35;;;;;;;18.13;16.03;;;;;;;0.40;100.00;96617.28;5021548;28;20211;-64
2020/12/08 05:53:02;;;;;;;20.47;16.70;;;;;;;0.40;100.00;96622.50;5014161;28;20455;-66
2020/12/08 05:55:30;;;;;;;19.80;17.63;;;;;;;0.52;100.00;96627.59;5006970;28;20682;-67
2020/12/08 05:58:06;;;;;;;19.97;17.73;;;;;;;0.40;100.00;96621.66;5009496;28;20222;-67
2020/12/08 06:00:35;;;;;;;21.50;16.60;;;;;;;0.46;100.00;96625.53;4976858;28;20919;-65
2020/12/08 06:03:10;;;;;;;22.33;17.80;;;;;;;0.72;100.00;96626.66;5014369;28;20596;-66
2020/12/08 06:05:38;;;;;;;22.83;18.93;;;;;;;0.60;100.00;96630.34;5009869;28;20239;-65
2020/12/08 06:08:16;;;;;;;23.37;18.17;;;;;;;0.69;100.00;96636.53;5013194;28;20620;-66
2020/12/08 06:10:44;;;;;;;20.17;17.60;;;;;;;0.77;100.00;96633.28;5001554;28;20574;-66
2020/12/08 06:13:11;;;;;;;24.00;18.07;;;;;;;0.74;100.00;96631.75;5019684;28;20200;-66
2020/12/08 06:15:39;;;;;;;21.00;17.83;;;;;;;0.80;100.00;96640.81;4979424;28;20345;-65
2020/12/08 06:18:06;;;;;;;23.13;18.93;;;;;;;0.81;100.00;96640.66;5019867;28;20212;-67
2020/12/08 06:20:37;;;;;;;21.20;17.53;;;;;;;0.64;100.00;96641.34;5018910;28;20290;-65
2020/12/08 06:23:06;;;;;;;24.87;19.67;;;;;;;0.73;100.00;96648.34;5016828;28;20664;-66
2020/12/08 06:25:33;;;;;;;23.57;19.50;;;;;;;0.66;100.00;96637.63;5011862;28;20223;-65
2020/12/08 06:28:00;;;;;;;30.70;20.20;;;;;;;1.34;100.00;96640.38;5013713;28;20239;-67
2020/12/08 06:30:28;;;;;;;25.43;18.80;;;;;;;1.73;100.00;96635.09;5020241;28;20237;-65
2020/12/08 06:32:58;;;;;;;28.00;21.30;;;;;;;1.73;100.00;96635.09;4979986;28;20212;-65
2020/12/08 06:35:32;;;;;;;25.20;20.73;;;;;;;1.71;100.00;96623.97;5003064;28;20720;-66
2020/12/08 06:38:15;;;;;;;27.43;20.80;;;;;;;1.36;100.00;96628.84;5013758;28;20197;-65
2020/12/08 06:40:51;;;;;;;23.93;19.00;;;;;;;1.20;100.00;96625.97;5016343;28;20201;-66
2020/12/08 06:43:18;;;;;;;22.40;18.13;;;;;;;1.07;100.00;96610.59;5001249;28;20580;-65
2020/12/08 06:45:45;;;;;;;23.10;18.67;;;;;;;0.80;100.00;96620.75;5020137;28;20405;-66
2020/12/08 06:48:17;;;;;;;24.80;19.30;;;;;;;0.71;100.00;96625.00;4981558;28;20236;-65
2020/12/08 06:50:44;;;;;;;24.23;18.27;;;;;;;0.80;100.00;96639.03;5025406;28;20207;-67
2020/12/08 06:53:11;;;;;;;26.43;20.90;;;;;;;0.74;100.00;96643.94;5014786;28;20773;-65
2020/12/08 06:55:47;;;;;;;29.60;21.50;;;;;;;1.06;100.00;96648.09;5021357;28;20227;-65
2020/12/08 06:58:14;;;;;;;21.33;18.97;;;;;;;1.27;100.00;96647.94;5010098;28;20215;-65
2020/12/08 07:00:41;;;;;;;22.53;19.83;;;;;;;1.15;100.00;96653.31;5019906;28;20205;-66
2020/12/08 07:03:09;;;;;;;23.63;18.93;;;;;;;0.66;100.00;96644.63;5000395;28;20703;-65
2020/12/08 07:05:36;;;;;;;25.13;20.30;;;;;;;0.79;100.00;96657.44;5006809;28;20797;-66
2020/12/08 07:08:06;;;;;;;27.40;19.67;;;;;;;0.66;100.00;96668.91;5023601;28;20216;-65
2020/12/08 07:10:36;;;;;;;25.53;18.33;;;;;;;0.56;100.00;96670.69;5018830;28;20406;-66
2020/12/08 07:13:09;;;;;;;24.00;18.37;;;;;;;0.52;100.00;96667.50;5003612;28;20402;-66
2020/12/08 07:15:36;;;;;;;23.87;18.30;;;;;;;0.46;100.00;96672.44;5019507;28;20739;-66
2020/12/08 07:18:04;;;;;;;23.37;18.47;;;;;;;0.32;100.00;96666.63;5010989;28;20855;-66
2020/12/08 07:20:31;;;;;;;25.80;19.90;;;;;;;0.49;100.00;96666.97;4983247;28;20220;-69
2020/12/08 07:23:02;;;;;;;25.40;19.00;;;;;;;0.31;100.00;96664.16;5007815;28;20200;-65
2020/12/08 07:25:29;;;;;;;23.43;18.77;;;;;;;0.32;100.00;96666.63;5010008;28;20254;-66
2020/12/08 07:27:56;;;;;;;26.17;18.27;;;;;;;0.28;100.00;96666.09;5000480;28;20224;-64
2020/12/08 07:30:27;;;;;;;27.07;20.00;;;;;;;0.28;100.00;96678.28;5015684;28;20451;-67
2020/12/08 07:32:55;;;;;;;23.13;18.07;;;;;;;0.30;100.00;96681.56;5014891;28;20204;-65
2020/12/08 07:35:24;;;;;;;25.47;19.80;;;;;;;0.23;100.00;96678.69;4978587;28;20593;-66
2020/12/08 07:37:52;;;;;;;24.87;19.07;;;;;;;0.22;100.00;96682.25;5011334;28;20302;-65
2020/12/08 07:40:19;;;;;;;21.83;16.40;;;;;;;0.18;100.00;96675.63;5017492;28;20443;-66
2020/12/08 07:42:48;;;;;;;21.60;18.07;;;;;;;0.12;100.00;96670.94;5018556;28;20600;-65
2020/12/08 07:45:15;;;;;;;20.27;17.27;;;;;;;0.08;100.00;96675.59;5003335;28;20441;-67
2020/12/08 07:47:45;;;;;;;21.33;16.97;;;;;;;-0.12;100.00;96674.69;5017553;28;20235;-66
2020/12/08 07:50:20;;;;;;;23.60;17.40;;;;;;;-0.05;100.00;96682.78;5016991;28;20365;-67
2020/12/08 07:53:00;;;;;;;20.33;16.03;;;;;;;0.02;100.00;96680.50;4981510;28;20215;-65
2020/12/08 07:55:29;;;;;;;25.67;17.80;;;;;;;-0.10;100.00;96693.63;5024852;28;20465;-67
2020/12/08 07:57:57;;;;;;;27.57;21.47;;;;;;;-0.20;100.00;96688.34;5016434;28;20601;-65
2020/12/08 08:00:24;;;;;;;24.13;19.53;;;;;;;-0.17;100.00;96698.50;5007737;28;20470;-66
2020/12/08 08:06:16;;;;;;;24.97;19.20;;;;;;;-0.11;100.00;96699.78;4983278;28;20390;-65
2020/12/08 08:08:44;;;;;;;21.30;17.20;;;;;;;-0.02;100.00;96706.81;5013167;28;20229;-65
2020/12/08 08:11:11;;;;;;;19.10;15.97;;;;;;;-0.02;100.00;96709.41;5013763;28;20216;-66
2020/12/08 08:13:38;;;;;;;19.87;16.23;;;;;;;0.09;100.00;96718.09;5015204;28;20216;-67
2020/12/08 08:16:09;;;;;;;18.53;15.70;;;;;;;0.10;100.00;96714.53;5000167;28;21067;-67
2020/12/08 08:18:37;;;;;;;20.03;17.13;;;;;;;-0.07;100.00;96709.00;5015200;28;20215;-68
2020/12/08 08:21:04;;;;;;;19.70;17.03;;;;;;;-0.16;100.00;96704.56;5015668;28;20200;-67
2020/12/08 08:23:32;;;;;;;22.97;17.47;;;;;;;-0.16;100.00;96707.16;4984917;28;20458;-68
2020/12/08 08:26:00;;;;;;;20.97;16.63;;;;;;;-0.02;100.00;96709.41;5010346;28;20474;-66
2020/12/08 08:28:27;;;;;;;24.20;18.57;;;;;;;0.04;100.00;96715.06;5017502;28;20616;-67
2020/12/08 08:30:54;;;;;;;18.37;16.30;;;;;;;0.24;100.00;96703.78;5011053;28;20219;-66
2020/12/08 08:33:22;;;;;;;20.23;16.57;;;;;;;0.22;100.00;96708.31;5011104;28;20462;-68
2020/12/08 08:35:49;;;;;;;22.33;17.17;;;;;;;0.13;100.00;96706.47;5015859;28;20481;-66
2020/12/08 08:38:16;;;;;;;20.13;17.53;;;;;;;-0.01;100.00;96707.63;4979190;28;21084;-68
2020/12/08 08:40:44;;;;;;;20.47;16.90;;;;;;;0.13;100.00;96706.47;5014846;28;20208;-66
2020/12/08 08:43:11;;;;;;;21.47;16.60;;;;;;;0.20;100.00;96707.63;5012754;28;20457;-67
2020/12/08 08:45:38;;;;;;;20.20;17.80;;;;;;;-0.04;100.00;96694.88;5019920;28;20497;-67
2020/12/08 08:48:06;;;;;;;19.17;16.07;;;;;;;0.10;100.00;96704.13;5001574;28;20317;-67
2020/12/08 08:50:33;;;;;;;21.10;16.80;;;;;;;0.03;100.00;96716.84;5018293;28;20273;-68
2020/12/08 08:53:00;;;;;;;19.03;16.87;;;;;;;-0.06;100.00;96721.06;4979135;28;20220;-66
2020/12/08 08:55:27;;;;;;;18.50;16.43;;;;;;;-0.04;100.00;96720.91;5022588;28;20462;-68
2020/12/08 08:58:11;;;;;;;19.77;17.03;;;;;;;0.18;100.00;96724.31;5016355;28;20278;-68
2020/12/08 09:00:38;;;;;;;19.93;16.50;;;;;;;0.13;100.00;96724.69;5018272;28;20453;-66
2020/12/08 09:03:08;;;;;;;30.63;23.57;;;;;;;0.12;100.00;96728.25;5012588;28;20417;-67
2020/12/08 09:05:35;;;;;;;23.33;20.37;;;;;;;0.08;100.00;96721.66;5002325;28;20329;-67
2020/12/08 09:08:02;;;;;;;19.63;16.67;;;;;;;-0.05;100.00;96720.09;4980065;28;20230;-67
2020/12/08 09:10:30;;;;;;;19.57;17.33;;;;;;;-0.15;100.00;96719.22;5014275;28;20204;-66
2020/12/08 09:12:57;;;;;;;25.53;20.37;;;;;;;0.06;100.00;96716.59;5015319;28;20450;-66
2020/12/08 09:15:25;;;;;;;23.37;19.43;;;;;;;0.11;100.00;96721.41;5015450;28;20224;-67
2020/12/08 09:17:52;;;;;;;19.90;17.13;;;;;;;0.20;100.00;96723.25;5016362;28;20210;-66
2020/12/08 09:20:19;;;;;;;17.90;15.97;;;;;;;0.40;100.00;96733.75;5006037;28;20847;-67
2020/12/08 09:22:46;;;;;;;17.33;15.00;;;;;;;0.61;100.00;96728.47;5009952;28;20208;-65
2020/12/08 09:25:13;;;;;;;15.60;13.90;;;;;;;0.55;100.00;96727.19;4996954;28;20607;-66
2020/12/08 09:27:40;;;;;;;16.27;14.07;;;;;;;0.54;100.00;96725.56;5021040;28;20650;-65
2020/12/08 09:30:07;;;;;;;17.47;15.40;;;;;;;0.49;100.00;96730.34;5014896;28;21142;-67
2020/12/08 09:32:35;;;;;;;16.43;14.70;;;;;;;0.57;100.00;96716.66;5021589;28;20208;-66
2020/12/08 09:35:03;;;;;;;20.17;15.27;;;;;;;0.72;100.00;96715.31;5001730;28;20227;-66
2020/12/08 09:37:29;;;;;;;17.07;15.27;;;;;;;0.76;100.00;96717.66;5021690;28;20686;-66
2020/12/08 09:39:57;;;;;;;18.17;15.50;;;;;;;0.96;99.36;96714.13;4983125;28;20786;-66
2020/12/08 09:42:24;;;;;;;20.27;15.63;;;;;;;0.90;100.00;96706.84;5020670;28;20541;-67
2020/12/08 09:44:51;;;;;;;19.23;16.40;;;;;;;1.03;99.19;96706.59;5019867;28;20232;-65
2020/12/08 09:47:18;;;;;;;18.70;15.80;;;;;;;1.00;98.43;96707.69;5020871;28;20700;-66
2020/12/08 09:49:46;;;;;;;18.53;16.67;;;;;;;1.02;99.01;96702.34;5021740;28;20232;-65
2020/12/08 09:52:14;;;;;;;20.07;17.70;;;;;;;0.94;99.97;96699.56;5007302;28;20531;-66
2020/12/08 09:54:41;;;;;;;18.80;16.87;;;;;;;0.85;100.00;96702.03;5019313;28;20247;-65
2020/12/08 09:57:08;;;;;;;20.67;17.13;;;;;;;0.93;100.00;96701.38;4988134;28;20402;-66
2020/12/08 09:59:35;;;;;;;18.80;16.10;;;;;;;0.94;100.00;96703.00;5022197;28;20361;-67
2020/12/08 10:02:03;;;;;;;19.70;16.90;;;;;;;1.02;100.00;96691.91;5012962;28;20843;-66
2020/12/08 10:04:30;;;;;;;17.37;15.57;;;;;;;0.89;100.00;96692.16;5013855;28;20592;-67
2020/12/08 10:06:58;;;;;;;19.20;17.23;;;;;;;0.93;100.00;96690.94;5000302;28;20449;-65
2020/12/08 10:09:25;;;;;;;20.63;17.40;;;;;;;0.84;100.00;96687.34;5017832;28;20220;-66
2020/12/08 10:11:52;;;;;;;24.73;19.37;;;;;;;0.95;100.00;96693.41;4983098;28;20533;-65
2020/12/08 10:14:20;;;;;;;27.10;24.33;;;;;;;0.87;100.00;96686.25;5018767;28;20619;-68
2020/12/08 10:16:47;;;;;;;22.50;19.00;;;;;;;0.89;100.00;96691.31;5019325;28;20209;-65
2020/12/08 10:19:14;;;;;;;33.60;26.27;;;;;;;1.06;100.00;96695.88;5018922;28;20208;-67
2020/12/08 10:21:41;;;;;;;83.97;46.97;;;;;;;0.99;100.00;96700.81;5007935;28;20231;-65
2020/12/08 10:24:09;;;;;;;115.40;61.47;;;;;;;1.10;99.88;96701.63;5017823;28;20861;-67
2020/12/08 10:26:36;;;;;;;56.20;32.67;;;;;;;1.18;99.46;96695.75;5020130;28;20222;-66
2020/12/08 10:29:03;;;;;;;55.00;33.30;;;;;;;1.13;99.54;96694.38;4983482;28;20619;-66
2020/12/08 10:31:31;;;;;;;46.30;26.87;;;;;;;1.48;95.74;96688.75;5018402;28;20723;-69
2020/12/08 10:33:59;;;;;;;153.30;70.10;;;;;;;1.34;98.19;96697.81;5017257;28;20207;-66
2020/12/08 10:36:27;;;;;;;106.53;51.97;;;;;;;1.19;98.58;96687.78;5007557;28;20569;-66
2020/12/08 10:38:54;;;;;;;243.60;99.20;;;;;;;1.22;99.19;96690.13;5014154;28;20570;-65
2020/12/08 10:41:22;;;;;;;325.90;126.03;;;;;;;1.24;99.37;96688.22;5018593;28;20208;-67
2020/12/08 10:43:49;;;;;;;200.50;78.97;;;;;;;1.30;99.51;96684.19;4980302;28;20217;-66
2020/12/08 10:46:16;;;;;;;236.47;92.77;;;;;;;1.48;99.14;96686.13;5016419;28;20759;-66
2020/12/08 10:48:44;;;;;;;212.20;88.90;;;;;;;1.52;98.87;96690.13;5020532;28;20243;-66
2020/12/08 10:51:11;;;;;;;139.20;59.97;;;;;;;1.89;97.29;96681.53;5017007;28;20243;-67
2020/12/08 10:53:38;;;;;;;86.13;43.73;;;;;;;2.13;95.75;96686.25;5006063;28;20587;-67
2020/12/08 10:56:09;;;;;;;151.27;64.13;;;;;;;2.14;94.83;96684.47;5008960;28;20457;-66
2020/12/08 10:58:37;;;;;;;46.17;27.33;;;;;;;2.44;91.50;96678.16;5017471;28;20203;-67
2020/12/08 11:01:05;;;;;;;92.10;52.27;;;;;;;2.59;90.36;96670.66;4982215;28;20441;-67
2020/12/08 11:03:32;;;;;;;27.20;20.63;;;;;;;2.57;91.33;96669.13;5021074;28;20207;-67
2020/12/08 11:05:59;;;;;;;20.10;17.97;;;;;;;2.67;89.77;96676.94;5013692;28;20231;-65
2020/12/08 11:08:26;;;;;;;22.47;20.03;;;;;;;2.40;91.69;96675.97;5006367;28;20220;-67
2020/12/08 11:10:53;;;;;;;21.80;18.53;;;;;;;2.64;89.36;96678.03;5013413;28;20494;-65
2020/12/08 11:13:20;;;;;;;19.73;17.07;;;;;;;2.61;89.45;96678.34;5013996;28;20261;-68
2020/12/08 11:15:59;;;;;;;17.00;15.43;;;;;;;2.75;89.32;96669.16;4982742;28;20634;-66
2020/12/08 11:18:26;;;;;;;17.23;15.40;;;;;;;2.74;88.10;96662.28;5019087;28;20208;-67
2020/12/08 11:20:53;;;;;;;17.90;16.00;;;;;;;2.84;88.60;96663.06;5015050;28;20212;-66
2020/12/08 11:23:20;;;;;;;17.70;15.63;;;;;;;2.98;86.96;96664.31;5007282;28;20218;-67